Time;durP1;ratioP1;P1;durP2;ratioP2;P2;SDS_P1;SDS_P2;PMS_P1;PMS_P2;Temp;Humidity;BMP_temperature;BMP_pressure;BME280_temperature;BME280_humidity;BME280_pressure;Samples;Min_cycle;Max_cycle;Signal;HPM_P1;HPM_P2
2022/03/12 00:02:15;;;;;;;;;2.00;2.00;;;;;8.75;69.57;100699.53;5036275;28;50374;-63
2022/03/12 00:04:41;;;;;;;;;3.00;3.00;;;;;10.52;69.24;101016.13;5036498;28;49661;-63
2022/03/12 00:07:09;;;;;;;;;6.00;4.00;;;;;10.56;69.31;101033.72;5036640;28;49812;-64
2022/03/12 00:09:35;;;;;;;;;4.00;2.25;;;;;10.55;69.55;101020.56;5036600;28;49749;-63
2022/03/12 00:12:01;;;;;;;;;3.00;3.00;;;;;10.31;69.17;100999.81;5036289;28;50628;-65
2022/03/12 00:14:28;;;;;;;;;4.50;3.00;;;;;10.41;69.43;101028.06;5036569;28;49962;-71
2022/03/12 00:16:54;;;;;;;;;2.25;2.25;;;;;10.24;69.13;100997.91;5036440;28;49752;-64
2022/03/12 00:19:21;;;;;;;;;3.00;3.00;;;;;10.34;69.01;101025.28;5034488;28;49995;-64
2022/03/12 00:21:47;;;;;;;;;3.25;3.00;;;;;10.47;68.99;101051.88;5032548;28;50574;-65
2022/03/12 00:24:15;;;;;;;;;3.50;3.25;;;;;10.44;69.50;101033.44;5032852;28;49665;-63
2022/03/12 00:26:42;;;;;;;;;3.25;3.25;;;;;10.35;69.35;101046.31;5015076;28;49626;-64
2022/03/12 00:29:14;;;;;;;;;2.25;2.25;;;;;10.44;69.41;101046.56;5040193;28;49919;-64
2022/03/12 00:31:42;;;;;;;;;4.00;3.00;;;;;10.48;69.47;101052.75;5036210;28;49864;-65
2022/03/12 00:34:08;;;;;;;;;3.50;3.50;;;;;10.53;68.88;101062.53;5028680;28;49734;-64
2022/03/12 00:36:33;;;;;;;;;1.25;1.25;;;;;10.49;68.62;101042.28;5032790;28;49855;-65
2022/03/12 00:38:59;;;;;;;;;2.00;2.00;;;;;10.69;68.51;101073.41;5032726;28;49962;-64
2022/03/12 00:41:25;;;;;;;;;6.00;6.00;;;;;10.71;68.95;101064.75;5032563;28;49734;-64
2022/03/12 00:43:51;;;;;;;;;4.00;3.25;;;;;10.76;68.22;101080.59;5034196;28;49924;-64
2022/03/12 00:46:17;;;;;;;;;4.00;4.00;;;;;10.75;67.91;101071.84;5035630;28;49819;-64
2022/03/12 00:48:42;;;;;;;;;4.00;3.75;;;;;10.75;67.98;101076.19;5031226;28;49813;-64
2022/03/12 00:51:09;;;;;;;;;3.50;2.00;;;;;10.73;67.85;101091.03;5032337;28;49712;-65
2022/03/12 00:53:35;;;;;;;;;3.50;3.50;;;;;10.74;68.20;101083.19;5032448;28;50242;-64
2022/03/12 00:56:01;;;;;;;;;3.00;1.75;;;;;10.67;67.69;101078.63;5032453;28;49924;-64
2022/03/12 00:58:27;;;;;;;;;5.00;5.00;;;;;10.63;67.76;101081.16;5034887;28;49810;-64
2022/03/12 01:00:52;;;;;;;;;3.00;3.00;;;;;10.69;68.06;101092.69;5032273;28;50384;-64
2022/03/12 01:03:17;;;;;;;;;5.00;3.00;;;;;10.76;67.37;101101.59;5032455;28;50837;-63
2022/03/12 01:05:49;;;;;;;;;3.50;3.25;;;;;10.76;67.81;101105.13;5035664;28;49700;-68
2022/03/12 01:08:18;;;;;;;;;4.00;4.00;;;;;10.75;68.21;101110.34;5034613;28;49825;-64
2022/03/12 01:10:45;;;;;;;;;3.25;2.00;;;;;10.77;67.50;101114.78;5032220;28;50760;-64
2022/03/12 01:13:14;;;;;;;;;2.25;2.25;;;;;10.78;67.52;101121.78;5034172;28;49888;-65
2022/03/12 01:15:40;;;;;;;;;4.00;4.00;;;;;10.78;67.50;101118.28;5032737;28;49727;-69
2022/03/12 01:18:18;;;;;;;;;2.75;2.75;;;;;10.80;67.59;101119.19;5032201;28;49976;-63
2022/03/12 01:20:44;;;;;;;;;7.75;4.50;;;;;10.38;67.02;101056.88;5032159;28;50580;-64
2022/03/12 01:23:13;;;;;;;;;4.25;3.00;;;;;10.63;67.16;101102.16;5031924;28;49913;-64
2022/03/12 01:25:43;;;;;;;;;9.25;7.25;;;;;10.79;67.59;101120.94;5032144;28;49778;-64
2022/03/12 01:28:10;;;;;;;;;4.25;4.00;;;;;10.81;67.75;101123.63;5032094;28;49890;-68
2022/03/12 01:30:35;;;;;;;;;3.00;3.00;;;;;10.75;67.92;101105.97;5031355;28;50840;-64
2022/03/12 01:33:01;;;;;;;;;3.25;3.00;;;;;10.79;67.57;101120.06;5031722;28;50115;-64
2022/03/12 01:35:27;;;;;;;;;4.00;3.25;;;;;10.50;67.36;101079.91;5032276;28;49846;-63
2022/03/12 01:37:53;;;;;;;;;3.75;3.50;;;;;10.63;67.54;101103.03;5031885;28;49788;-65
2022/03/12 01:40:19;;;;;;;;;2.00;2.00;;;;;10.67;66.97;101123.25;5031784;28;49877;-63
2022/03/12 01:42:45;;;;;;;;;4.00;3.75;;;;;10.59;67.57;101116.91;5031906;28;49700;-64
2022/03/12 01:45:13;;;;;;;;;5.00;3.25;;;;;10.57;68.06;101124.75;5031813;28;49806;-63
2022/03/12 01:47:40;;;;;;;;;4.50;3.75;;;;;10.44;67.68;101103.41;5014068;28;49831;-72
2022/03/12 01:50:06;;;;;;;;;2.50;2.50;;;;;10.54;67.77;101121.16;5031423;28;51311;-63
2022/03/12 01:52:32;;;;;;;;;7.00;5.50;;;;;10.42;68.29;101100.75;5031572;28;49860;-63
2022/03/12 01:54:58;;;;;;;;;3.25;3.25;;;;;10.46;68.14;101117.44;5031476;28;49987;-69
2022/03/12 01:57:24;;;;;;;;;5.75;3.00;;;;;10.10;68.00;101080.56;5031932;28;49753;-63
2022/03/12 01:59:51;;;;;;;;;4.00;3.00;;;;;10.43;68.10;101125.25;5031298;28;49736;-63
2022/03/12 02:02:17;;;;;;;;;3.25;3.25;;;;;10.43;68.25;101126.13;5031678;28;49928;-65
2022/03/12 02:04:51;;;;;;;;;3.00;3.00;;;;;10.47;68.84;101128.00;5031534;28;49726;-63
2022/03/12 02:07:17;;;;;;;;;3.00;3.00;;;;;10.46;67.75;101123.59;5031808;28;49943;-68
2022/03/12 02:09:44;;;;;;;;;3.75;2.75;;;;;10.24;67.89;101095.00;5030970;28;50783;-65
2022/03/12 02:12:11;;;;;;;;;5.25;3.00;;;;;10.51;68.45;101142.06;5031211;28;49870;-64
2022/03/12 02:14:37;;;;;;;;;2.00;2.00;;;;;10.48;67.86;101142.00;5031551;28;49800;-63
2022/03/12 02:17:07;;;;;;;;;6.00;4.00;;;;;10.45;67.70;101145.44;5031518;28;50180;-63
2022/03/12 02:19:33;;;;;;;;;2.25;1.75;;;;;10.30;68.22;101113.50;5034059;28;49998;-64
2022/03/12 02:22:15;;;;;;;;;6.75;4.00;;;;;10.45;68.37;101148.06;5031137;28;49881;-63
2022/03/12 02:24:40;;;;;;;;;5.00;3.50;;;;;10.47;67.52;101151.59;5030220;28;50075;-65
2022/03/12 02:27:10;;;;;;;;;3.00;3.00;;;;;10.48;67.78;101153.38;5030492;28;49639;-64
2022/03/12 02:29:37;;;;;;;;;3.00;3.00;;;;;10.48;67.69;101155.13;5033544;28;49664;-63
2022/03/12 02:32:05;;;;;;;;;3.00;3.00;;;;;10.40;68.56;101139.16;5033408;28;49816;-64
2022/03/12 02:34:38;;;;;;;;;3.00;3.00;;;;;10.13;68.12;101088.50;5030932;28;49823;-63
2022/03/12 02:37:04;;;;;;;;;6.00;6.00;;;;;10.34;67.65;101119.75;5013011;28;49992;-63
2022/03/12 02:39:30;;;;;;;;;8.00;6.25;;;;;10.54;67.39;101153.56;5030178;28;50813;-64
2022/03/12 02:41:56;;;;;;;;;4.00;4.00;;;;;10.57;67.77;101153.63;5029287;28;49772;-65
2022/03/12 02:44:24;;;;;;;;;4.75;2.50;;;;;10.39;67.54;101124.25;5030298;28;49835;-64
2022/03/12 02:47:11;;;;;;;;;2.25;2.25;;;;;10.56;67.37;101143.09;5030705;28;50110;-63
2022/03/12 02:49:39;;;;;;;;;3.00;3.00;;;;;10.55;67.45;101146.56;5030451;28;49989;-63
2022/03/12 02:52:05;;;;;;;;;4.00;4.00;;;;;10.50;67.42;101138.56;5030345;28;49853;-63
2022/03/12 02:54:31;;;;;;;;;3.50;3.50;;;;;10.53;67.47;101149.16;5030425;28;49806;-63
2022/03/12 02:56:56;;;;;;;;;6.00;4.00;;;;;10.59;67.32;101158.91;5030783;28;49714;-63
2022/03/12 02:59:22;;;;;;;;;3.75;3.25;;;;;10.59;67.15;101153.66;5030211;28;49633;-63
2022/03/12 03:01:48;;;;;;;;;3.25;3.00;;;;;10.67;67.13;101156.50;5028039;28;49816;-63
2022/03/12 03:04:13;;;;;;;;;4.00;2.50;;;;;10.63;66.90;101159.91;5030139;28;49833;-63
2022/03/12 03:06:39;;;;;;;;;5.00;3.50;;;;;10.57;66.89;101135.25;5030380;28;50046;-64
2022/03/12 03:09:04;;;;;;;;;3.50;3.50;;;;;10.70;66.93;101160.09;5029931;28;50107;-64
2022/03/12 03:11:38;;;;;;;;;6.00;6.00;;;;;10.67;66.81;101157.41;5030314;28;49862;-63
2022/03/12 03:14:06;;;;;;;;;6.00;4.00;;;;;10.47;66.50;101129.72;5030347;28;49807;-63
2022/03/12 03:16:31;;;;;;;;;8.00;3.50;;;;;10.54;67.32;101160.56;5030264;28;50078;-64
2022/03/12 03:18:57;;;;;;;;;3.50;3.50;;;;;10.35;67.11;101129.41;5029568;28;59655;-63
2022/03/12 03:21:24;;;;;;;;;3.00;1.25;;;;;10.20;67.04;101107.09;5033059;28;49654;-63
2022/03/12 03:23:49;;;;;;;;;2.00;2.00;;;;;10.46;67.04;101159.44;5034175;28;49792;-63
2022/03/12 03:26:34;;;;;;;;;6.50;6.25;;;;;10.38;67.18;101153.09;5031476;28;49517;-63
2022/03/12 03:29:00;;;;;;;;;4.00;2.75;;;;;10.36;67.00;101139.94;5029917;28;49759;-63
2022/03/12 03:31:29;;;;;;;;;3.00;3.00;;;;;10.40;66.94;101157.53;5029689;28;49843;-63
2022/03/12 03:33:55;;;;;;;;;4.25;3.00;;;;;10.13;67.52;101119.97;5030118;28;49955;-63
2022/03/12 03:36:20;;;;;;;;;2.00;2.00;;;;;10.35;66.82;101153.91;5030091;28;50043;-63
2022/03/12 03:38:45;;;;;;;;;4.50;4.50;;;;;10.19;67.05;101133.28;5029508;28;50485;-63
2022/03/12 03:41:11;;;;;;;;;3.50;2.00;;;;;10.31;66.94;101160.78;5029890;28;49662;-63
2022/03/12 03:43:36;;;;;;;;;3.00;3.00;;;;;10.31;67.46;101162.50;5029911;28;49649;-63
2022/03/12 03:46:02;;;;;;;;;2.75;2.00;;;;;10.11;67.67;101129.56;5030130;28;49785;-63
2022/03/12 03:48:27;;;;;;;;;3.50;3.50;;;;;10.29;67.09;101166.84;5029725;28;50518;-63
2022/03/12 03:50:54;;;;;;;;;3.00;3.00;;;;;10.27;67.33;101155.41;5032253;28;49781;-63
2022/03/12 03:53:23;;;;;;;;;3.25;3.25;;;;;10.29;67.20;101166.84;5029685;28;49759;-63
2022/03/12 03:55:48;;;;;;;;;8.75;6.50;;;;;10.26;68.02;101167.66;5032064;28;49976;-63
2022/03/12 03:58:14;;;;;;;;;7.25;3.50;;;;;10.18;67.27;101153.38;5034894;28;50397;-63
2022/03/12 04:00:51;;;;;;;;;8.00;3.00;;;;;10.19;67.54;101160.41;5033083;28;49935;-64
2022/03/12 04:03:18;;;;;;;;;3.75;3.75;;;;;10.18;67.50;101156.00;5033349;28;49784;-66
2022/03/12 04:05:43;;;;;;;;;4.00;4.00;;;;;10.18;68.40;101161.25;5033306;28;50155;-66
2022/03/12 04:08:09;;;;;;;;;2.75;2.25;;;;;10.08;67.84;101156.59;5032613;28;49623;-63
2022/03/12 04:10:36;;;;;;;;;4.25;4.25;;;;;10.05;68.12;101153.88;5032931;28;49604;-63
2022/03/12 04:13:09;;;;;;;;;5.00;5.00;;;;;10.09;68.05;101168.84;5032866;28;49834;-64
2022/03/12 04:15:37;;;;;;;;;3.25;3.00;;;;;10.04;68.08;101173.09;5033199;28;49855;-64
2022/03/12 04:18:04;;;;;;;;;3.75;3.00;;;;;10.03;68.42;101176.53;5032662;28;50633;-63
2022/03/12 04:20:31;;;;;;;;;4.25;3.25;;;;;9.90;68.86;101159.56;5033035;28;49760;-64
2022/03/12 04:22:56;;;;;;;;;3.25;3.00;;;;;10.01;68.62;101178.22;5032852;28;50655;-63
2022/03/12 04:25:22;;;;;;;;;5.00;3.75;;;;;9.66;68.87;101137.88;5032863;28;49914;-63
2022/03/12 04:27:48;;;;;;;;;9.00;3.25;;;;;9.96;68.48;101179.84;5032428;28;49722;-64
2022/03/12 04:30:18;;;;;;;;;3.00;2.25;;;;;9.96;68.72;101185.09;5032671;28;50097;-63
2022/03/12 04:32:45;;;;;;;;;3.75;3.75;;;;;9.97;69.06;101187.75;5032623;28;50074;-63
2022/03/12 04:35:11;;;;;;;;;3.00;3.00;;;;;10.00;68.84;101189.56;5032836;28;49903;-64
2022/03/12 04:37:37;;;;;;;;;2.50;2.00;;;;;9.87;68.69;101167.34;5032051;28;49987;-63
2022/03/12 04:40:11;;;;;;;;;5.00;5.00;;;;;9.65;68.68;101139.59;5031426;28;49843;-63
2022/03/12 04:42:38;;;;;;;;;2.75;2.75;;;;;9.98;68.87;101196.50;5032621;28;49799;-63
2022/03/12 04:45:07;;;;;;;;;5.50;3.00;;;;;9.84;68.76;101174.22;5032655;28;49745;-63
2022/03/12 04:47:32;;;;;;;;;4.75;3.50;;;;;9.99;68.69;101198.28;5032273;28;50582;-63
2022/03/12 04:49:57;;;;;;;;;3.00;2.75;;;;;10.00;68.39;101197.44;5032341;28;49750;-65
2022/03/12 04:52:23;;;;;;;;;7.50;3.75;;;;;9.99;68.46;101200.91;5031747;28;49754;-63
2022/03/12 04:54:48;;;;;;;;;3.00;3.00;;;;;9.99;68.46;101203.53;5031395;28;49956;-64
2022/03/12 04:57:13;;;;;;;;;6.25;5.00;;;;;10.02;69.04;101198.38;5032173;28;50480;-63
2022/03/12 04:59:39;;;;;;;;;3.00;3.00;;;;;9.98;68.30;101178.16;5032398;28;49897;-63
2022/03/12 05:02:05;;;;;;;;;6.25;3.75;;;;;10.11;68.58;101195.13;5032287;28;49769;-63
2022/03/12 05:04:31;;;;;;;;;6.00;4.00;;;;;10.10;68.00;101199.50;5032414;28;49975;-63
2022/03/12 05:06:56;;;;;;;;;2.50;2.50;;;;;9.70;67.90;101127.50;5031140;28;49995;-64
2022/03/12 05:09:21;;;;;;;;;4.25;4.25;;;;;10.11;68.46;101210.88;5031104;28;49675;-63
2022/03/12 05:11:48;;;;;;;;;6.25;6.25;;;;;10.07;68.45;101214.25;5031856;28;49735;-63
2022/03/12 05:14:16;;;;;;;;;5.00;3.75;;;;;9.99;68.61;101209.66;5032073;28;50068;-63
2022/03/12 05:16:45;;;;;;;;;2.25;2.25;;;;;10.08;68.43;101218.66;5031910;28;50590;-62
2022/03/12 05:19:13;;;;;;;;;7.25;6.00;;;;;10.08;67.71;101221.28;5031781;28;49796;-63
2022/03/12 05:21:39;;;;;;;;;4.00;4.00;;;;;10.08;67.93;101224.78;5031988;28;49813;-63
2022/03/12 05:24:05;;;;;;;;;4.75;4.50;;;;;10.11;68.07;101229.22;5031836;28;49866;-63
2022/03/12 05:26:30;;;;;;;;;3.75;3.75;;;;;10.12;67.64;101224.03;5031364;28;50017;-63
2022/03/12 05:28:55;;;;;;;;;3.50;2.25;;;;;9.47;67.68;101107.56;5031670;28;49611;-63
2022/03/12 05:31:21;;;;;;;;;3.75;3.00;;;;;10.11;67.82;101224.00;5031775;28;49655;-63
2022/03/12 05:33:46;;;;;;;;;4.00;3.00;;;;;9.75;67.91;101162.63;5031915;28;49908;-63
2022/03/12 05:36:12;;;;;;;;;3.00;3.00;;;;;10.05;67.17;101222.09;5031495;28;50222;-63
2022/03/12 05:38:38;;;;;;;;;3.75;3.75;;;;;10.13;67.46;101230.16;5031060;28;49711;-63
2022/03/12 05:41:09;;;;;;;;;2.50;2.50;;;;;10.02;67.54;101214.09;5031511;28;49836;-64
2022/03/12 05:43:35;;;;;;;;;8.25;5.50;;;;;9.89;67.75;101193.59;5031755;28;49855;-63
2022/03/12 05:46:01;;;;;;;;;4.25;2.50;;;;;10.00;67.71;101216.69;5030168;28;50255;-69
2022/03/12 05:48:27;;;;;;;;;4.00;3.00;;;;;10.06;67.77;101226.50;5031533;28;50048;-64
2022/03/12 05:50:53;;;;;;;;;7.00;6.50;;;;;10.07;67.32;101230.88;5034249;28;49769;-64
2022/03/12 05:53:19;;;;;;;;;6.00;3.75;;;;;10.04;67.41;101229.06;5034982;28;49635;-67
2022/03/12 05:55:47;;;;;;;;;8.00;6.50;;;;;10.02;67.77;101230.72;5013126;28;50389;-64
2022/03/12 05:58:15;;;;;;;;;8.75;7.00;;;;;10.01;68.49;101233.31;5029907;28;50025;-63
2022/03/12 06:00:41;;;;;;;;;7.25;7.25;;;;;9.77;68.16;101207.25;5031268;28;49670;-65
2022/03/12 06:03:10;;;;;;;;;6.75;3.00;;;;;9.95;68.14;101247.16;5031190;28;50249;-63
2022/03/12 06:05:40;;;;;;;;;7.75;5.00;;;;;9.93;68.54;101254.06;5031135;28;50252;-64
2022/03/12 06:08:07;;;;;;;;;6.00;5.75;;;;;9.91;68.44;101249.59;5030926;28;49938;-65
2022/03/12 06:10:37;;;;;;;;;6.00;4.50;;;;;9.77;68.73;101233.47;5031389;28;49815;-64
2022/03/12 06:13:06;;;;;;;;;6.50;6.50;;;;;9.91;68.54;101260.09;5031311;28;49953;-63
2022/03/12 06:15:32;;;;;;;;;8.75;7.75;;;;;9.87;68.41;101258.25;5030903;28;49780;-65
2022/03/12 06:17:58;;;;;;;;;7.00;4.00;;;;;9.83;68.53;101258.97;5029068;28;49744;-64
2022/03/12 06:20:23;;;;;;;;;7.50;6.75;;;;;9.63;68.76;101237.34;5029888;28;49959;-66
2022/03/12 06:22:52;;;;;;;;;6.00;6.00;;;;;9.80;68.01;101266.75;5030841;28;50015;-63
2022/03/12 06:25:18;;;;;;;;;6.25;5.75;;;;;9.74;68.62;101262.19;5030919;28;49764;-64
2022/03/12 06:27:47;;;;;;;;;7.50;5.50;;;;;9.70;68.83;101262.94;5030227;28;49912;-67
2022/03/12 06:30:15;;;;;;;;;9.00;6.75;;;;;9.61;68.87;101237.31;5030806;28;49804;-64
2022/03/12 06:32:42;;;;;;;;;6.75;6.75;;;;;9.79;68.80;101276.34;5029633;28;49948;-66
2022/03/12 06:35:10;;;;;;;;;7.25;7.00;;;;;9.82;68.92;101279.06;5030663;28;49808;-67
2022/03/12 06:37:36;;;;;;;;;7.00;7.00;;;;;9.85;68.45;101280.91;5030369;28;49741;-67
2022/03/12 06:40:02;;;;;;;;;8.00;8.00;;;;;9.86;68.73;101285.31;5030688;28;49883;-71
2022/03/12 06:42:29;;;;;;;;;9.75;8.00;;;;;9.79;68.65;101262.34;5030900;28;49708;-64
2022/03/12 06:44:55;;;;;;;;;6.75;6.25;;;;;9.74;68.34;101262.19;5029427;28;51356;-63
2022/03/12 06:47:28;;;;;;;;;7.75;7.00;;;;;9.83;68.48;101285.19;5030717;28;50019;-63
2022/03/12 06:49:55;;;;;;;;;8.75;7.00;;;;;9.92;67.89;101299.47;5025292;28;49721;-64
2022/03/12 06:52:20;;;;;;;;;7.00;7.00;;;;;9.43;68.05;101213.13;5030494;28;49773;-64
2022/03/12 06:54:46;;;;;;;;;3.50;3.50;;;;;9.93;67.67;101306.50;5030335;28;50428;-63
2022/03/12 06:57:11;;;;;;;;;7.75;5.50;;;;;9.77;67.96;101275.41;5030185;28;49588;-62
2022/03/12 06:59:37;;;;;;;;;3.00;3.00;;;;;10.02;68.09;101316.41;5030510;28;50068;-63
2022/03/12 07:02:03;;;;;;;;;5.50;3.00;;;;;9.99;67.94;101319.81;5030642;28;50065;-64
2022/03/12 07:04:28;;;;;;;;;5.50;4.00;;;;;10.15;67.58;101338.69;5030382;28;49795;-63
2022/03/12 07:06:53;;;;;;;;;5.50;4.00;;;;;9.96;67.18;101322.38;5030423;28;49933;-64
2022/03/12 07:09:18;;;;;;;;;5.00;5.00;;;;;10.12;67.27;101339.47;5030183;28;49907;-63
2022/03/12 07:11:44;;;;;;;;;6.50;6.00;;;;;9.84;66.45;101300.06;5030319;28;49701;-64
2022/03/12 07:14:10;;;;;;;;;1.00;1.00;;;;;10.13;65.87;101348.22;5030258;28;49868;-63
2022/03/12 07:16:35;;;;;;;;;8.25;7.25;;;;;10.13;66.87;101350.84;5030180;28;49874;-63
2022/03/12 07:19:01;;;;;;;;;7.25;6.00;;;;;10.05;66.53;101332.25;5030312;28;49866;-63
2022/03/12 07:21:28;;;;;;;;;8.00;8.00;;;;;10.21;66.64;101349.34;5030464;28;50043;-63
2022/03/12 07:23:53;;;;;;;;;6.75;6.00;;;;;10.02;65.83;101319.03;5029950;28;49652;-64
2022/03/12 07:26:20;;;;;;;;;6.50;5.50;;;;;10.26;65.78;101355.69;5029880;28;49925;-64
2022/03/12 07:28:46;;;;;;;;;7.25;4.00;;;;;10.29;65.90;101364.53;5030406;28;50097;-65
2022/03/12 07:31:17;;;;;;;;;8.00;3.50;;;;;10.32;65.76;101363.75;5033938;28;49956;-64
2022/03/12 07:33:44;;;;;;;;;7.50;7.50;;;;;10.37;65.77;101356.91;5032332;28;50474;-64
2022/03/12 07:36:10;;;;;;;;;6.00;4.00;;;;;10.41;66.08;101358.78;5032644;28;49779;-64
2022/03/12 07:38:36;;;;;;;;;6.50;6.50;;;;;10.11;66.09;101292.19;5035257;28;49814;-64
2022/03/12 07:41:01;;;;;;;;;3.00;3.00;;;;;10.58;65.88;101360.19;5033723;28;50008;-65
2022/03/12 07:43:27;;;;;;;;;9.50;6.75;;;;;10.71;65.26;101366.72;5032652;28;49685;-64
2022/03/12 07:45:52;;;;;;;;;9.00;6.50;;;;;10.25;65.11;101272.56;5014650;28;49832;-64
2022/03/12 07:48:17;;;;;;;;;6.75;5.75;;;;;10.79;64.62;101354.69;5033486;28;50331;-64
2022/03/12 07:50:44;;;;;;;;;5.50;3.75;;;;;10.63;63.94;101306.94;5015021;28;49985;-66
2022/03/12 07:53:10;;;;;;;;;7.75;7.75;;;;;10.83;64.42;101353.06;5032863;28;50020;-65
2022/03/12 07:55:35;;;;;;;;;9.50;7.00;;;;;10.84;64.00;101346.94;5033307;28;49600;-65
2022/03/12 07:58:01;;;;;;;;;4.50;4.50;;;;;11.02;63.78;101368.50;5033400;28;49800;-65
2022/03/12 08:00:28;;;;;;;;;7.00;7.00;;;;;10.82;63.47;101336.41;5033570;28;49844;-64
2022/03/12 08:02:55;;;;;;;;;8.00;6.25;;;;;10.90;63.82;101344.47;5033067;28;49626;-65
2022/03/12 08:05:23;;;;;;;;;6.00;5.25;;;;;11.01;63.52;101363.19;5032999;28;49731;-65
2022/03/12 08:07:50;;;;;;;;;6.00;6.00;;;;;10.93;63.58;101351.59;5032760;28;49797;-64
2022/03/12 08:10:15;;;;;;;;;4.50;4.50;;;;;11.05;63.76;101370.31;5033087;28;49737;-66
2022/03/12 08:12:41;;;;;;;;;3.50;3.00;;;;;11.14;63.18;101381.97;5032703;28;50085;-64
2022/03/12 08:15:08;;;;;;;;;5.50;5.50;;;;;11.03;63.76;101358.88;5015395;28;49929;-64
2022/03/12 08:17:34;;;;;;;;;7.00;7.00;;;;;11.09;63.15;101373.06;5032986;28;49859;-64
2022/03/12 08:19:59;;;;;;;;;5.50;3.00;;;;;11.28;63.25;101411.25;5032988;28;49757;-64
2022/03/12 08:22:25;;;;;;;;;6.75;6.75;;;;;11.29;62.75;101417.41;5032266;28;53137;-65
2022/03/12 08:24:51;;;;;;;;;4.25;4.25;;;;;11.27;63.05;101405.97;5031625;28;50049;-65
2022/03/12 08:27:16;;;;;;;;;9.00;7.00;;;;;11.30;63.07;101409.59;5032745;28;49856;-64
2022/03/12 08:29:44;;;;;;;;;7.75;6.75;;;;;11.24;63.08;101406.78;5032789;28;49760;-65
2022/03/12 08:32:10;;;;;;;;;4.00;4.00;;;;;11.35;63.08;101428.09;5032360;28;51401;-66
2022/03/12 08:34:36;;;;;;;;;4.75;3.75;;;;;11.40;62.54;101431.75;5032539;28;49610;-65
2022/03/12 08:37:03;;;;;;;;;4.00;4.00;;;;;11.17;62.40;101381.16;5032452;28;49785;-64
2022/03/12 08:39:28;;;;;;;;;6.75;4.75;;;;;11.47;62.62;101433.69;5032552;28;49771;-65
2022/03/12 08:41:55;;;;;;;;;5.25;5.25;;;;;11.30;62.23;101411.31;5034709;28;50254;-66
2022/03/12 08:44:21;;;;;;;;;9.25;6.50;;;;;11.55;62.48;101434.81;5032163;28;49762;-67
2022/03/12 08:46:46;;;;;;;;;6.25;4.75;;;;;11.64;61.94;101437.69;5032440;28;49947;-67
2022/03/12 08:49:13;;;;;;;;;3.50;3.50;;;;;11.68;62.05;101429.03;5032522;28;49776;-67
2022/03/12 08:51:41;;;;;;;;;7.50;7.00;;;;;11.73;61.59;101429.16;5032306;28;49982;-67
2022/03/12 08:54:07;;;;;;;;;5.25;5.25;;;;;11.47;61.67;101376.75;5031420;28;49638;-67
2022/03/12 08:56:33;;;;;;;;;5.25;5.25;;;;;11.76;61.59;101426.59;5032417;28;49753;-68
2022/03/12 08:58:59;;;;;;;;;3.50;2.75;;;;;11.66;61.65;101401.78;5032538;28;49737;-68
2022/03/12 09:01:25;;;;;;;;;4.00;4.00;;;;;11.89;61.20;101428.75;5032035;28;50513;-67
2022/03/12 09:03:50;;;;;;;;;7.00;2.50;;;;;12.00;61.34;101437.81;5032045;28;49758;-62
2022/03/12 09:06:17;;;;;;;;;7.50;5.50;;;;;11.98;60.41;101423.72;5031918;28;49748;-64
2022/03/12 09:08:45;;;;;;;;;8.50;7.50;;;;;11.89;60.36;101391.91;5032182;28;49678;-65
2022/03/12 09:11:11;;;;;;;;;3.00;3.00;;;;;12.18;60.55;101436.50;5031832;28;49900;-66
2022/03/12 09:13:36;;;;;;;;;3.75;3.75;;;;;12.25;60.40;101435.78;5025734;28;49749;-64
2022/03/12 09:16:02;;;;;;;;;4.00;4.00;;;;;12.32;60.49;101437.72;5032034;28;49595;-65
2022/03/12 09:18:28;;;;;;;;;7.00;7.00;;;;;12.37;60.47;101435.22;5032334;28;50062;-66
2022/03/12 09:20:54;;;;;;;;;5.00;4.75;;;;;12.38;59.87;101429.97;5031846;28;50324;-66
2022/03/12 09:23:21;;;;;;;;;6.50;5.00;;;;;12.40;60.14;101425.63;5031846;28;50049;-65
2022/03/12 09:25:49;;;;;;;;;5.50;5.50;;;;;12.43;59.62;101423.06;5032327;28;50063;-67
2022/03/12 09:28:15;;;;;;;;;6.00;5.50;;;;;12.44;59.83;101424.84;5031920;28;49819;-68
2022/03/12 09:30:41;;;;;;;;;3.75;3.00;;;;;12.40;59.92;101404.56;5031905;28;50148;-65
2022/03/12 09:33:07;;;;;;;;;3.50;3.50;;;;;12.59;59.90;101434.84;5030920;28;49836;-66
2022/03/12 09:35:34;;;;;;;;;5.50;5.50;;;;;12.66;59.96;101431.50;5031803;28;49679;-66
2022/03/12 09:38:01;;;;;;;;;5.25;5.25;;;;;12.76;59.48;101441.41;5031543;28;49700;-66
2022/03/12 09:40:28;;;;;;;;;4.25;3.75;;;;;12.84;59.54;101436.31;5031400;28;49756;-65
2022/03/12 09:42:53;;;;;;;;;3.75;3.75;;;;;12.94;59.63;101427.75;5031676;28;49685;-68
2022/03/12 09:45:21;;;;;;;;;3.75;3.75;;;;;12.91;59.06;101406.59;5013610;28;49839;-69
2022/03/12 09:47:47;;;;;;;;;4.00;4.00;;;;;13.09;59.12;101424.53;5031784;28;49810;-66
2022/03/12 09:50:12;;;;;;;;;7.50;6.50;;;;;13.13;59.16;101422.00;5012908;28;51093;-65
2022/03/12 09:52:38;;;;;;;;;11.00;5.50;;;;;13.17;58.72;101422.97;5031031;28;49805;-67
2022/03/12 09:55:04;;;;;;;;;7.50;6.25;;;;;13.19;57.91;101418.63;5031421;28;49742;-65
2022/03/12 09:57:30;;;;;;;;;6.25;6.25;;;;;13.25;58.36;101424.03;5031572;28;49976;-66
2022/03/12 09:59:56;;;;;;;;;7.75;4.00;;;;;13.33;57.97;101421.56;5031075;28;50038;-64
2022/03/12 10:02:22;;;;;;;;;4.75;4.50;;;;;12.93;57.93;101336.34;5031310;28;49768;-65
2022/03/12 10:04:47;;;;;;;;;4.25;3.00;;;;;13.45;57.62;101411.25;5031412;28;49686;-67
2022/03/12 10:07:13;;;;;;;;;9.25;7.00;;;;;13.33;57.65;101382.91;5013116;28;50012;-67
2022/03/12 10:09:39;;;;;;;;;5.25;3.25;;;;;13.47;57.70;101404.25;5029789;28;51317;-68
2022/03/12 10:12:05;;;;;;;;;6.75;5.00;;;;;13.36;57.51;101372.41;5012985;28;50060;-68
2022/03/12 10:14:32;;;;;;;;;4.00;4.00;;;;;13.68;57.19;101417.84;5031148;28;50036;-68
2022/03/12 10:17:00;;;;;;;;;4.25;3.75;;;;;13.77;57.12;101410.97;5031245;28;49899;-68
2022/03/12 10:19:27;;;;;;;;;3.50;3.00;;;;;13.86;57.92;101408.47;5036452;28;49902;-69
2022/03/12 10:21:52;;;;;;;;;5.75;5.00;;;;;13.96;57.28;101403.38;5029426;28;49839;-68
2022/03/12 10:24:18;;;;;;;;;4.00;4.00;;;;;14.12;56.80;101399.25;5030391;28;49799;-68
2022/03/12 10:26:43;;;;;;;;;5.75;5.75;;;;;14.22;56.43;101397.66;5031069;28;49677;-68
2022/03/12 10:29:11;;;;;;;;;3.00;3.00;;;;;14.30;56.30;101402.22;5030594;28;49855;-68
2022/03/12 10:31:41;;;;;;;;;6.00;3.25;;;;;14.07;56.49;101332.28;5030549;28;49733;-68
2022/03/12 10:34:13;;;;;;;;;5.75;5.00;;;;;14.22;56.23;101335.19;5030528;28;49659;-63
2022/03/12 10:36:39;;;;;;;;;3.50;3.50;;;;;14.57;55.74;101374.44;5031280;28;49800;-64
2022/03/12 10:39:05;;;;;;;;;8.75;5.00;;;;;14.48;55.29;101351.44;5030565;28;49703;-61
2022/03/12 10:41:31;;;;;;;;;3.50;3.50;;;;;14.65;55.38;101370.16;5030821;28;49963;-63
2022/03/12 10:43:56;;;;;;;;;6.75;5.50;;;;;14.72;55.30;101382.59;5030738;28;49678;-63
2022/03/12 10:46:25;;;;;;;;;4.00;3.00;;;;;14.81;55.63;101373.91;5030894;28;50193;-65
2022/03/12 10:48:59;;;;;;;;;4.75;4.75;;;;;14.52;55.28;101320.66;5030448;28;49611;-70
2022/03/12 10:51:27;;;;;;;;;4.00;4.00;;;;;14.67;54.96;101335.81;5012459;28;49580;-68
2022/03/12 10:54:04;;;;;;;;;4.50;3.00;;;;;14.77;54.69;101367.69;5030501;28;49706;-68
2022/03/12 10:56:38;;;;;;;;;5.75;3.75;;;;;14.85;54.64;101379.22;5025283;28;50000;-68
2022/03/12 10:59:27;;;;;;;;;3.25;3.25;;;;;14.69;54.17;101353.50;5030221;28;49773;-68
2022/03/12 11:01:54;;;;;;;;;5.00;3.00;;;;;14.63;54.82;101341.94;5030220;28;49901;-68
2022/03/12 11:04:30;;;;;;;;;3.00;3.00;;;;;14.78;54.51;101374.75;5029523;28;49853;-70
2022/03/12 11:06:59;;;;;;;;;5.00;3.25;;;;;14.47;54.07;101306.47;5030266;28;49900;-69
2022/03/12 11:09:37;;;;;;;;;2.00;2.00;;;;;14.87;54.30;101372.22;5029933;28;49773;-70
2022/03/12 11:12:30;;;;;;;;;2.75;2.75;;;;;14.91;53.83;101372.25;5029836;28;49718;-68
2022/03/12 11:15:16;;;;;;;;;4.25;3.50;;;;;14.70;53.84;101346.44;5012237;28;49856;-68
2022/03/12 11:17:46;;;;;;;;;4.00;3.00;;;;;14.95;53.83;101358.19;5030517;28;49682;-68
2022/03/12 11:20:19;;;;;;;;;6.00;4.00;;;;;14.82;53.79;101326.34;5023768;28;50907;-68
2022/03/12 11:22:49;;;;;;;;;7.00;5.25;;;;;15.10;53.38;101358.41;5029870;28;49779;-68
2022/03/12 11:25:20;;;;;;;;;3.50;3.50;;;;;15.02;53.25;101333.63;5029961;28;49864;-68
2022/03/12 11:27:49;;;;;;;;;2.75;2.75;;;;;14.87;52.92;101289.41;5029759;28;50722;-69